Flight Track Log - Related Links

Times and Time Zones

All times are in EDT time to prevent confusion due to time zone crossing. See the ASA250 flight status page for this flight to view local times or setup timezone preferences in your user account.

Time Position Orientation Groundspeed Altitude Reporting Facility
EDT Latitude Longitude Course Direction KTS MPH feet Rate Location/Type
Tue 11:17:42 AM 33.9333 -118.4667 140° Southeast 199 229 2,200  Level Southern California TRACON
Tue 11:18:42 AM 33.9000 -118.5333 239° Southwest 251 289 4,100 1,810 Climbing Southern California TRACON
Tue 11:19:48 AM 33.8222 -118.5342 181° South 292 336 6,000 1,922 Climbing Los Angeles Center
Tue 11:20:50 AM 33.7417 -118.5172 170° South 298 343 8,200 2,806 Climbing Los Angeles Center
Tue 11:21:52 AM 33.6722 -118.4294 134° Southeast 311 358 11,800 3,000 Climbing Los Angeles Center
Tue 11:22:54 AM 33.6556 -118.3169 100° East 356 410 14,400 2,928 Climbing Los Angeles Center
Tue 11:23:00 AM 33.4835 -117.7002 140° Southeast  Level FlightAware Approximate
Tue 11:23:57 AM 33.6592 -118.1725 88° East 373 429 17,900  Level Los Angeles Center
Tue 11:24:58 AM 33.6614 -118.0461 89° East 381 438 20,800 2,439 Climbing Los Angeles Center
Tue 11:26:00 AM 33.6531 -117.9167 94° East 397 457 22,900 1,632 Climbing Los Angeles Center
Tue 11:27:03 AM 33.6069 -117.7931 114° Southeast 407 468 24,200 1,632 Climbing Los Angeles Center
Tue 11:28:05 AM 33.5614 -117.6692 114° Southeast 408 470 26,300 2,032 Climbing Los Angeles Center
Tue 11:29:07 AM 33.5075 -117.5222 114° Southeast 404 465 28,400 1,548 Climbing Los Angeles Center
Tue 11:30:09 AM 33.4592 -117.3914 114° Southeast 423 487 29,500 1,210 Climbing Los Angeles Center
Tue 11:31:11 AM 33.4106 -117.2597 114° Southeast 432 497 30,900 1,355 Climbing Los Angeles Center
Tue 11:32:13 AM 33.3564 -117.1169 114° Southeast 437 503 32,300 1,235 Climbing Los Angeles Center
Tue 11:33:27 AM 33.3067 -116.9831 114° Southeast 440 506 33,700 1,358 Climbing Los Angeles Center
Tue 11:34:30 AM 33.2472 -116.8267 114° Southeast 434 499 35,400 1,296 Climbing Los Angeles Center
Tue 11:35:32 AM 33.1983 -116.6972 114° Southeast 428 493 36,400 706 Climbing Los Angeles Center
Tue 11:36:46 AM 33.1492 -116.5681 114° Southeast 427 491 37,000 263 Climbing Los Angeles Center
Tue 11:37:49 AM 33.0889 -116.4111 115° Southeast 429 494 37,000  Level Los Angeles Center
Tue 11:38:51 AM 33.0372 -116.2700 114° Southeast 429 494 37,000  Level Los Angeles Center
Tue 11:39:53 AM 32.9778 -116.1228 116° Southeast 429 494 37,000  Level Los Angeles Center
Tue 11:40:56 AM 32.9283 -115.9939 115° Southeast 426 490 37,000  Level Los Angeles Center
Tue 11:41:57 AM 32.8786 -115.8656 115° Southeast 426 490 37,000  Level Los Angeles Center
Tue 11:42:59 AM 32.8283 -115.7392 115° Southeast 424 488 37,000  Level Los Angeles Center
Tue 11:44:14 AM 32.7322 -115.6161 133° Southeast 427 491 37,000  Level Los Angeles Center
Tue 11:46:00 AM 32.6463 -115.3859 128° Southeast  Level FlightAware Approximate
Tue 11:53:00 AM 32.1067 -114.5791 128° Southeast  Level FlightAware Approximate
Tue 11:54:00 AM 32.0292 -114.4647 129° Southeast  Level FlightAware Approximate
Tue 11:55:00 AM 31.9516 -114.3504 129° Southeast  Level FlightAware Approximate
Tue 11:56:00 AM 31.8738 -114.2363 129° Southeast  Level FlightAware Approximate
Tue 11:57:00 AM 31.7960 -114.1224 129° Southeast  Level FlightAware Approximate
Tue 11:58:00 AM 31.7181 -114.0087 129° Southeast  Level FlightAware Approximate
Tue 11:59:00 AM 31.6393 -113.8940 129° Southeast  Level FlightAware Approximate
Tue 12:00:00 PM 31.5604 -113.7796 129° Southeast  Level FlightAware Approximate
Tue 12:01:00 PM 31.4814 -113.6653 129° Southeast  Level FlightAware Approximate
Tue 12:02:00 PM 31.4023 -113.5512 129° Southeast  Level FlightAware Approximate
Tue 12:03:00 PM 31.3168 -113.4441 136° Southeast  Level FlightAware Approximate
Tue 12:04:00 PM 31.2261 -113.3427 136° Southeast  Level FlightAware Approximate
Tue 12:05:00 PM 31.1354 -113.2415 136° Southeast  Level FlightAware Approximate
Tue 12:06:00 PM 31.0445 -113.1404 136° Southeast  Level FlightAware Approximate
Tue 12:07:00 PM 30.9536 -113.0396 136° Southeast  Level FlightAware Approximate
Tue 12:08:00 PM 30.8626 -112.9390 136° Southeast  Level FlightAware Approximate
Tue 12:09:00 PM 30.7716 -112.8385 137° Southeast  Level FlightAware Approximate
Tue 12:10:00 PM 30.6805 -112.7383 137° Southeast  Level FlightAware Approximate
Tue 12:11:00 PM 30.5893 -112.6381 136° Southeast  Level FlightAware Approximate
Tue 12:12:00 PM 30.4987 -112.5374 136° Southeast  Level FlightAware Approximate
Tue 12:13:00 PM 30.4076 -112.4374 137° Southeast  Level FlightAware Approximate
Tue 12:14:00 PM 30.3158 -112.3384 137° Southeast  Level FlightAware Approximate
Tue 12:15:00 PM 30.2239 -112.2395 137° Southeast  Level FlightAware Approximate
Tue 12:16:00 PM 30.1319 -112.1408 137° Southeast  Level FlightAware Approximate
Tue 12:17:00 PM 30.0399 -112.0423 137° Southeast  Level FlightAware Approximate
Tue 12:18:00 PM 29.9478 -111.9440 137° Southeast  Level FlightAware Approximate
Tue 12:19:00 PM 29.8557 -111.8458 137° Southeast  Level FlightAware Approximate
Tue 12:20:00 PM 29.7634 -111.7479 137° Southeast  Level FlightAware Approximate
Tue 12:21:00 PM 29.6711 -111.6501 137° Southeast  Level FlightAware Approximate
Tue 12:22:00 PM 29.5787 -111.5525 137° Southeast  Level FlightAware Approximate
Tue 12:23:00 PM 29.4863 -111.4550 137° Southeast  Level FlightAware Approximate
Tue 12:24:00 PM 29.3938 -111.3578 138° Southeast  Level FlightAware Approximate
Tue 12:25:00 PM 29.3012 -111.2607 138° Southeast  Level FlightAware Approximate
Tue 12:26:00 PM 29.2085 -111.1638 138° Southeast  Level FlightAware Approximate
Tue 12:27:00 PM 29.1158 -111.0671 138° Southeast  Level FlightAware Approximate
Tue 12:28:00 PM 29.0264 -110.9665 134° Southeast  Level FlightAware Approximate
Tue 12:29:00 PM 28.9387 -110.8639 134° Southeast  Level FlightAware Approximate
Tue 12:30:00 PM 28.8510 -110.7615 134° Southeast  Level FlightAware Approximate
Tue 12:31:00 PM 28.7632 -110.6593 134° Southeast  Level FlightAware Approximate
Tue 12:32:00 PM 28.6754 -110.5572 134° Southeast  Level FlightAware Approximate
Tue 12:33:00 PM 28.5874 -110.4553 134° Southeast  Level FlightAware Approximate
Tue 12:34:00 PM 28.4994 -110.3536 135° Southeast  Level FlightAware Approximate
Tue 12:35:00 PM 28.4113 -110.2521 135° Southeast  Level FlightAware Approximate
Tue 12:36:00 PM 28.3231 -110.1507 135° Southeast  Level FlightAware Approximate
Tue 12:37:00 PM 28.2349 -110.0495 135° Southeast  Level FlightAware Approximate
Tue 12:38:00 PM 28.1465 -109.9484 135° Southeast  Level FlightAware Approximate
Tue 12:39:00 PM 28.0581 -109.8475 135° Southeast  Level FlightAware Approximate
Tue 12:40:00 PM 27.9697 -109.7468 135° Southeast  Level FlightAware Approximate
Tue 12:41:00 PM 27.8811 -109.6463 135° Southeast  Level FlightAware Approximate
Tue 12:42:00 PM 27.7925 -109.5459 135° Southeast  Level FlightAware Approximate
Tue 12:43:00 PM 27.7058 -109.4435 133° Southeast  Level FlightAware Approximate
Tue 12:44:00 PM 27.6199 -109.3403 133° Southeast  Level FlightAware Approximate
Tue 12:45:00 PM 27.5339 -109.2373 133° Southeast  Level FlightAware Approximate
Tue 12:46:00 PM 27.4453 -109.1372 135° Southeast  Level FlightAware Approximate
Tue 12:47:00 PM 27.3560 -109.0380 135° Southeast  Level FlightAware Approximate
Tue 12:48:00 PM 27.2666 -108.9390 135° Southeast  Level FlightAware Approximate
Tue 12:49:00 PM 27.1771 -108.8401 135° Southeast  Level FlightAware Approximate
Tue 12:50:00 PM 27.0876 -108.7414 136° Southeast  Level FlightAware Approximate
Tue 12:51:00 PM 26.9980 -108.6428 136° Southeast  Level FlightAware Approximate
Tue 12:52:00 PM 26.9083 -108.5444 136° Southeast  Level FlightAware Approximate
Tue 12:53:00 PM 26.8186 -108.4462 136° Southeast  Level FlightAware Approximate
Tue 12:54:00 PM 26.7288 -108.3481 136° Southeast  Level FlightAware Approximate
Tue 12:55:00 PM 26.6507 -108.2389 125° Southeast  Level FlightAware Approximate
Tue 12:56:00 PM 26.5780 -108.1246 125° Southeast  Level FlightAware Approximate
Tue 12:57:00 PM 26.5052 -108.0104 125° Southeast  Level FlightAware Approximate
Tue 12:58:00 PM 26.4316 -107.8969 126° Southeast  Level FlightAware Approximate
Tue 12:59:00 PM 26.3571 -107.7843 126° Southeast  Level FlightAware Approximate
Tue 01:00:00 PM 26.2824 -107.6718 126° Southeast  Level FlightAware Approximate
Tue 01:01:00 PM 26.2078 -107.5595 127° Southeast  Level FlightAware Approximate
Tue 01:02:00 PM 26.1330 -107.4473 127° Southeast  Level FlightAware Approximate
Tue 01:03:00 PM 26.0581 -107.3352 127° Southeast  Level FlightAware Approximate
Tue 01:04:00 PM 25.9831 -107.2233 127° Southeast  Level FlightAware Approximate
Tue 01:05:00 PM 25.9081 -107.1115 127° Southeast  Level FlightAware Approximate
Tue 01:06:00 PM 25.8336 -106.9994 126° Southeast  Level FlightAware Approximate
Tue 01:07:00 PM 25.7598 -106.8867 126° Southeast  Level FlightAware Approximate
Tue 01:08:00 PM 25.6859 -106.7742 126° Southeast  Level FlightAware Approximate
Tue 01:09:00 PM 25.6119 -106.6619 126° Southeast  Level FlightAware Approximate
Tue 01:10:00 PM 25.5378 -106.5497 126° Southeast  Level FlightAware Approximate
Tue 01:11:00 PM 25.4637 -106.4376 126° Southeast  Level FlightAware Approximate
Tue 01:12:00 PM 25.3891 -106.3259 127° Southeast  Level FlightAware Approximate
Tue 01:13:00 PM 25.3138 -106.2149 127° Southeast  Level FlightAware Approximate
Tue 01:14:00 PM 25.2384 -106.1040 127° Southeast  Level FlightAware Approximate
Tue 01:15:00 PM 25.1629 -105.9933 127° Southeast  Level FlightAware Approximate
Tue 01:16:00 PM 25.0856 -105.8842 129° Southeast  Level FlightAware Approximate
Tue 01:17:00 PM 25.0072 -105.7762 129° Southeast  Level FlightAware Approximate
Tue 01:18:00 PM 24.9286 -105.6683 129° Southeast  Level FlightAware Approximate
Tue 01:19:00 PM 24.8505 -105.5601 127° Southeast  Level FlightAware Approximate
Tue 01:20:00 PM 24.7742 -105.4505 127° Southeast  Level FlightAware Approximate
Tue 01:21:00 PM 24.6977 -105.3410 128° Southeast  Level FlightAware Approximate
Tue 01:22:00 PM 24.6212 -105.2316 128° Southeast  Level FlightAware Approximate
Tue 01:23:00 PM 24.5446 -105.1224 128° Southeast  Level FlightAware Approximate
Tue 01:24:00 PM 24.4679 -105.0133 128° Southeast  Level FlightAware Approximate
Tue 01:25:00 PM 24.3912 -104.9044 128° Southeast  Level FlightAware Approximate
Tue 01:26:00 PM 24.3143 -104.7955 128° Southeast  Level FlightAware Approximate
Tue 01:27:00 PM 24.2374 -104.6868 128° Southeast  Level FlightAware Approximate
Tue 01:28:00 PM 24.1604 -104.5783 128° Southeast  Level FlightAware Approximate
Tue 01:29:00 PM 24.0853 -104.4683 125° Southeast  Level FlightAware Approximate
Tue 01:30:00 PM 24.0125 -104.3564 125° Southeast  Level FlightAware Approximate
Tue 01:31:00 PM 23.9397 -104.2446 125° Southeast  Level FlightAware Approximate
Tue 01:32:00 PM 23.8668 -104.1329 126° Southeast  Level FlightAware Approximate
Tue 01:33:00 PM 23.7939 -104.0214 126° Southeast  Level FlightAware Approximate
Tue 01:34:00 PM 23.7208 -103.9100 126° Southeast  Level FlightAware Approximate
Tue 01:35:00 PM 23.6477 -103.7987 126° Southeast  Level FlightAware Approximate
Tue 01:36:00 PM 23.5745 -103.6876 126° Southeast  Level FlightAware Approximate
Tue 01:37:00 PM 23.5007 -103.5769 127° Southeast  Level FlightAware Approximate
Tue 01:38:00 PM 23.4250 -103.4679 127° Southeast  Level FlightAware Approximate
Tue 01:39:00 PM 23.3492 -103.3590 127° Southeast  Level FlightAware Approximate
Tue 01:40:00 PM 23.2734 -103.2502 127° Southeast  Level FlightAware Approximate
Tue 01:41:00 PM 23.1974 -103.1416 127° Southeast  Level FlightAware Approximate
Tue 01:42:00 PM 23.1217 -103.0328 126° Southeast  Level FlightAware Approximate
Tue 01:43:00 PM 23.0471 -102.9232 126° Southeast  Level FlightAware Approximate
Tue 01:44:00 PM 22.9724 -102.8137 127° Southeast  Level FlightAware Approximate
Tue 01:45:00 PM 22.8977 -102.7043 127° Southeast  Level FlightAware Approximate
Tue 01:46:00 PM 22.8121 -102.6051 135° Southeast  Level FlightAware Approximate
Tue 01:47:00 PM 22.7240 -102.5083 135° Southeast  Level FlightAware Approximate
Tue 01:48:00 PM 22.6357 -102.4117 135° Southeast  Level FlightAware Approximate
Tue 01:49:00 PM 22.5475 -102.3152 135° Southeast  Level FlightAware Approximate
Tue 01:50:00 PM 22.4591 -102.2188 135° Southeast  Level FlightAware Approximate
Tue 01:51:00 PM 22.3707 -102.1225 135° Southeast  Level FlightAware Approximate
Tue 01:52:00 PM 22.2837 -102.0248 134° Southeast  Level FlightAware Approximate
Tue 01:53:00 PM 22.1972 -101.9268 134° Southeast  Level FlightAware Approximate
Tue 01:54:00 PM 22.1105 -101.8288 134° Southeast  Level FlightAware Approximate
Tue 01:55:00 PM 22.0238 -101.7310 134° Southeast  Level FlightAware Approximate
Tue 01:56:00 PM 21.9371 -101.6333 134° Southeast  Level FlightAware Approximate
Tue 01:57:00 PM 21.8503 -101.5357 134° Southeast  Level FlightAware Approximate
Tue 01:58:00 PM 21.7636 -101.4381 134° Southeast  Level FlightAware Approximate
Tue 01:59:00 PM 21.6763 -101.3411 135° Southeast  Level FlightAware Approximate
Tue 02:00:00 PM 21.5876 -101.2458 135° Southeast  Level FlightAware Approximate
Tue 02:01:00 PM 21.4988 -101.1505 135° Southeast  Level FlightAware Approximate
Tue 02:02:00 PM 21.4100 -101.0554 135° Southeast  Level FlightAware Approximate
Tue 02:03:00 PM 21.3211 -100.9603 135° Southeast  Level FlightAware Approximate
Tue 02:04:00 PM 21.2322 -100.8654 134° Southeast  Level FlightAware Approximate
Tue 02:05:00 PM 21.1457 -100.7680 134° Southeast  Level FlightAware Approximate
Tue 02:06:00 PM 21.0581 -100.6717 135° Southeast  Level FlightAware Approximate
Tue 02:07:00 PM 20.9694 -100.5766 135° Southeast  Level FlightAware Approximate
Tue 02:08:00 PM 20.8807 -100.4817 135° Southeast  Level FlightAware Approximate
Tue 02:09:00 PM 20.7975 -100.3815 145° Southeast  Level FlightAware Approximate
Tue 02:10:00 PM 20.7016 -100.2962 132° Southeast  Level FlightAware Approximate
Tue 02:11:00 PM 20.6218 -100.1936 118° Southeast  Level FlightAware Approximate
Tue 02:12:00 PM 20.5405 -100.0920 132° Southeast  Level FlightAware Approximate
Tue 02:13:00 PM 20.4639 -99.9860 127° Southeast  Level FlightAware Approximate
Tue 02:14:00 PM 20.3878 -99.8796 127° Southeast  Level FlightAware Approximate
Tue 02:15:00 PM 20.3080 -99.7765 130° Southeast  Level FlightAware Approximate
Tue 02:16:00 PM 20.2267 -99.6747 130° Southeast  Level FlightAware Approximate
Tue 02:17:00 PM 20.1453 -99.5730 130° Southeast  Level FlightAware Approximate
Tue 02:18:00 PM 20.0639 -99.4714 130° Southeast  Level FlightAware Approximate
Tue 02:19:00 PM 19.9880 -99.3652 125° Southeast  Level FlightAware Approximate
Tue 02:20:00 PM 19.9188 -99.2542 118° Southeast  Level FlightAware Approximate
Tue 02:21:00 PM 19.8343 -99.1558 133° Southeast  Level FlightAware Approximate
Tue 02:22:00 PM 19.7566 -99.0515 125° Southeast  Level FlightAware Approximate
Tue 02:23:00 PM 19.6499 -99.0333 180° South  Level FlightAware Approximate
Tue 02:24:00 PM 19.5255 -99.0449 191° South  Level FlightAware Approximate
Tue 02:25:00 PM 19.4363 -99.0721 191° South  Level Estimated
Tue 02:26:00 PM 19.4363 -99.0721 191° South  Level Estimated
Tue 02:27:00 PM 19.4363 -99.0721 191° South  Level Estimated
Tue 02:28:00 PM 19.4363 -99.0721 191° South  Level Estimated
Tue 02:29:00 PM 19.4363 -99.0721 191° South  Level Estimated
Tue 02:30:00 PM 19.4363 -99.0721 191° South  Level Estimated
Tue 02:31:00 PM 19.4363 -99.0721 191° South  Level Estimated
Tue 02:32:00 PM 19.4363 -99.0721 191° South  Level Estimated
Tue 02:33:00 PM 19.4363 -99.0721 191° South  Level Estimated
Tue 02:34:00 PM 19.4363 -99.0721 191° South  Level Estimated
Tue 02:35:00 PM 19.4363 -99.0721 191° South  Level Estimated

Login

Don't have an account? Register now (free) for customized features, flight alerts, and more!